Terminal Aerodrome Forecast
Issued by NWS King Salmon, AK

Home | Current Version | Previous Version | Text Only | Print | Product List | Glossary On
Versions: 1 2 3 4 5 6 7 8 9 10 11 12 13 14 15 16 17 18 19 20 21 22 23 24 25 26 27 28 29
377
FTAK31 PANC 062336
TAFAKN
TAF
PAKN 062336Z 0700/0724 16007KT P6SM BKN040
     FM071200 05015KT P6SM SCT050
     FM071800 05015G25KT P6SM SCT050
     FM072200 05020G33KT P6SM SCT050=

USA.gov is the U.S. government's official web portal to all federal, state and local government web resources and services.